createdAt,value
2023-03-01T00:00:24.023Z,12.35
2023-03-01T00:05:25.987Z,11.68
2023-03-01T00:10:27.930Z,10.93
2023-03-01T00:15:29.951Z,11.63
2023-03-01T00:20:32.024Z,11.82
2023-03-01T00:25:33.874Z,12.68
2023-03-01T00:30:35.871Z,13.07
2023-03-01T00:35:38.505Z,14.57
2023-03-01T00:40:40.390Z,13.15
2023-03-01T00:45:42.458Z,13.35
2023-03-01T00:50:44.426Z,11.85
2023-03-01T00:55:46.332Z,13.52
2023-03-01T01:00:48.169Z,13.25
2023-03-01T01:05:51.002Z,12.38
2023-03-01T01:10:52.771Z,11.63
2023-03-01T01:15:54.640Z,11.48
2023-03-01T01:20:57.803Z,12.85
2023-03-01T01:26:14.962Z,11.80
2023-03-01T01:31:17.195Z,13.03
2023-03-01T01:36:19.055Z,11.52
2023-03-01T01:41:22.597Z,11.82
2023-03-01T01:46:34.714Z,12.63
2023-03-01T01:51:40.420Z,12.52
2023-03-01T01:56:47.518Z,11.95
2023-03-01T02:01:49.369Z,13.30
2023-03-01T02:07:19.458Z,12.05
2023-03-01T02:12:25.609Z,14.02
2023-03-01T02:17:27.548Z,13.13
2023-03-01T02:22:33.100Z,13.65
2023-03-01T02:27:44.848Z,15.50
2023-03-01T02:32:47.396Z,14.18
2023-03-01T02:37:49.618Z,12.50
2023-03-01T02:42:56.874Z,13.85
2023-03-01T02:47:59.138Z,14.25
2023-03-01T02:53:41.242Z,13.00
2023-03-01T02:58:52.073Z,13.25
2023-03-01T03:03:54.920Z,11.82
2023-03-01T03:08:56.926Z,11.32
2023-03-01T03:13:58.943Z,14.05
2023-03-01T03:19:06.318Z,12.50
2023-03-01T03:24:08.148Z,14.75
2023-03-01T03:29:09.934Z,14.10
2023-03-01T03:34:19.314Z,13.90
2023-03-01T03:39:24.846Z,15.32
2023-03-01T03:44:27.967Z,13.73
2023-03-01T03:49:29.856Z,12.50
2023-03-01T03:54:31.669Z,12.70
2023-03-01T03:59:33.580Z,12.35
2023-03-01T04:04:35.845Z,11.75
2023-03-01T04:09:37.732Z,12.80
2023-03-01T04:14:39.748Z,13.38
2023-03-01T04:19:41.596Z,13.73
2023-03-01T04:24:43.421Z,13.48
2023-03-01T04:29:45.263Z,17.13
2023-03-01T04:34:47.339Z,14.02
2023-03-01T04:39:49.201Z,18.48
2023-03-01T04:44:52.352Z,21.60
2023-03-01T04:49:54.119Z,21.65
2023-03-01T04:54:55.849Z,20.00
2023-03-01T05:00:00.622Z,18.90
2023-03-01T05:05:02.542Z,17.63
2023-03-01T05:10:04.711Z,18.27
2023-03-01T05:15:08.074Z,18.48
2023-03-01T05:20:11.290Z,18.42
2023-03-01T05:25:15.076Z,19.85
2023-03-01T05:30:18.313Z,22.70
2023-03-01T05:35:20.286Z,26.52
2023-03-01T05:40:25.258Z,15.88
2023-03-01T05:45:28.404Z,15.70
2023-03-01T05:50:33.547Z,14.93
2023-03-01T05:55:36.531Z,16.42
2023-03-01T06:00:38.527Z,18.52
2023-03-01T06:05:41.830Z,19.13
2023-03-01T06:10:43.730Z,17.55
2023-03-01T06:15:45.577Z,17.65
2023-03-01T06:20:56.962Z,17.77
2023-03-01T06:25:58.911Z,16.92
2023-03-01T06:31:00.784Z,17.55
2023-03-01T06:36:02.813Z,16.38
2023-03-01T06:41:04.916Z,16.73
2023-03-01T06:46:08.067Z,16.92
2023-03-01T06:51:10.033Z,16.95
2023-03-01T06:56:11.927Z,16.90
2023-03-01T07:01:13.941Z,18.70
2023-03-01T07:06:16.052Z,19.38
2023-03-01T07:11:17.979Z,22.10
2023-03-01T07:16:21.478Z,23.45
2023-03-01T07:21:23.288Z,38.88
2023-03-01T07:26:51.791Z,19.17
2023-03-01T07:31:53.622Z,17.98
2023-03-01T07:36:58.468Z,14.27
2023-03-01T07:42:00.478Z,15.82
2023-03-01T07:47:02.443Z,15.40
2023-03-01T07:52:04.613Z,14.82
2023-03-01T07:57:06.538Z,13.85
2023-03-01T08:02:10.416Z,14.38
2023-03-01T08:07:12.312Z,13.73
2023-03-01T08:12:17.339Z,14.02
2023-03-01T08:17:19.227Z,11.25
2023-03-01T08:22:21.127Z,12.90
2023-03-01T08:27:24.029Z,13.23
2023-03-01T08:32:26.932Z,14.52
2023-03-01T08:37:32.077Z,13.40
2023-03-01T08:42:34.219Z,12.88
2023-03-01T08:47:36.259Z,11.77
2023-03-01T08:52:38.140Z,10.93
2023-03-01T08:57:39.959Z,12.88
2023-03-01T09:02:41.754Z,14.20
2023-03-01T09:07:43.868Z,12.50
2023-03-01T09:12:45.791Z,12.20
2023-03-01T09:17:47.955Z,14.18
2023-03-01T09:22:49.839Z,15.18
2023-03-01T09:27:55.565Z,15.20
2023-03-01T09:32:57.958Z,14.10
2023-03-01T09:37:59.902Z,14.05
2023-03-01T09:43:19.857Z,14.05
2023-03-01T09:48:27.125Z,13.68
2023-03-01T09:53:36.258Z,14.32
2023-03-01T09:59:05.812Z,12.32
2023-03-01T10:04:43.065Z,13.50
2023-03-01T10:09:46.595Z,11.52
2023-03-01T10:15:00.406Z,11.75
2023-03-01T10:20:20.408Z,12.80
2023-03-01T10:25:54.794Z,13.32
2023-03-01T10:30:59.976Z,12.88
2023-03-01T10:36:03.366Z,12.50
2023-03-01T10:41:08.645Z,11.15
2023-03-01T10:46:25.321Z,12.32
2023-03-01T10:51:27.321Z,12.82
2023-03-01T10:56:32.558Z,13.55
2023-03-01T11:01:37.115Z,16.10
2023-03-01T11:06:41.397Z,13.85
2023-03-01T11:11:43.344Z,12.30
2023-03-01T11:16:48.732Z,10.75
2023-03-01T11:22:02.733Z,11.93
2023-03-01T11:27:16.695Z,12.88
2023-03-01T11:32:21.073Z,13.75
2023-03-01T11:37:40.986Z,12.02
2023-03-01T11:43:11.169Z,11.50
2023-03-01T11:48:47.047Z,11.15
2023-03-01T11:53:54.990Z,10.32
2023-03-01T11:59:17.730Z,10.13
2023-03-01T12:04:22.512Z,9.88
2023-03-01T12:09:55.288Z,9.27
2023-03-01T12:15:05.990Z,10.80
2023-03-01T12:20:15.591Z,10.25
2023-03-01T12:25:40.813Z,10.82
2023-03-01T12:31:10.975Z,9.50
2023-03-01T12:36:21.726Z,9.00
2023-03-01T12:41:32.657Z,9.35
2023-03-01T12:46:56.044Z,9.32
2023-03-01T12:52:10.578Z,11.20
2023-03-01T12:57:18.128Z,10.88
2023-03-01T13:02:49.494Z,12.45
2023-03-01T13:08:42.754Z,12.68
2023-03-01T13:13:44.752Z,11.10
2023-03-01T13:18:46.841Z,9.75
2023-03-01T13:23:51.520Z,10.80
2023-03-01T13:28:58.297Z,11.63
2023-03-01T13:34:01.934Z,10.65
2023-03-01T13:39:41.328Z,10.98
2023-03-01T13:44:44.650Z,9.63
2023-03-01T13:50:05.092Z,10.25
2023-03-01T13:55:15.374Z,9.38
2023-03-01T14:00:35.629Z,8.75
2023-03-01T14:05:38.033Z,11.35
2023-03-01T14:11:08.554Z,11.38
2023-03-01T14:16:35.961Z,10.98
2023-03-01T14:21:37.953Z,11.52
2023-03-01T14:26:39.922Z,10.70
2023-03-01T14:31:52.457Z,9.90
2023-03-01T14:36:55.789Z,10.52
2023-03-01T14:42:10.637Z,10.52
2023-03-01T14:47:34.458Z,10.25
2023-03-01T14:52:40.381Z,9.15
2023-03-01T14:57:45.570Z,15.52
2023-03-01T15:02:51.151Z,9.95
2023-03-01T15:07:54.156Z,11.70
2023-03-01T15:12:56.373Z,11.40
2023-03-01T15:18:01.451Z,11.65
2023-03-01T15:23:04.458Z,12.57
2023-03-01T15:28:06.363Z,11.13
2023-03-01T15:33:30.644Z,10.30
2023-03-01T15:38:52.940Z,11.52
2023-03-01T15:43:57.039Z,9.43
2023-03-01T15:49:26.191Z,10.68
2023-03-01T15:54:29.034Z,9.30
2023-03-01T15:59:30.821Z,9.73
2023-03-01T16:04:32.699Z,10.85
2023-03-01T16:09:34.573Z,10.20
2023-03-01T16:14:36.400Z,8.73
2023-03-01T16:19:39.600Z,8.55
2023-03-01T16:24:42.273Z,9.65
2023-03-01T16:29:44.334Z,8.95
2023-03-01T16:34:48.760Z,9.18
2023-03-01T16:39:52.188Z,10.43
2023-03-01T16:44:57.425Z,18.58
2023-03-01T16:49:59.397Z,21.60
2023-03-01T16:55:01.493Z,25.35
2023-03-01T17:00:08.475Z,22.83
2023-03-01T17:05:13.348Z,22.00
2023-03-01T17:10:15.352Z,23.73
2023-03-01T17:15:17.242Z,18.80
2023-03-01T17:20:19.108Z,17.77
2023-03-01T17:25:20.993Z,19.70
2023-03-01T17:30:22.877Z,19.40
2023-03-01T17:35:24.744Z,19.08
2023-03-01T17:40:26.669Z,17.38
2023-03-01T17:45:28.497Z,18.70
2023-03-01T17:50:30.365Z,19.50
2023-03-01T17:55:32.127Z,19.60
2023-03-01T18:00:34.879Z,16.95
2023-03-01T18:05:40.239Z,17.77
2023-03-01T18:10:42.089Z,28.85
2023-03-01T18:15:43.847Z,28.27
2023-03-01T18:20:45.644Z,22.17
2023-03-01T18:25:47.386Z,24.13
2023-03-01T18:30:49.402Z,19.40
2023-03-01T18:35:51.478Z,21.38
2023-03-01T18:40:53.493Z,19.23
2023-03-01T18:45:59.468Z,18.52
2023-03-01T18:51:15.320Z,13.77
2023-03-01T18:56:17.436Z,12.43
2023-03-01T19:01:25.441Z,11.70
2023-03-01T19:06:34.506Z,10.85
2023-03-01T19:11:36.655Z,12.50
2023-03-01T19:16:38.511Z,11.18
2023-03-01T19:21:40.460Z,10.77
2023-03-01T19:26:42.699Z,10.85
2023-03-01T19:31:44.568Z,9.73
2023-03-01T19:36:48.589Z,9.90
2023-03-01T19:41:50.531Z,8.82
2023-03-01T19:46:59.904Z,8.45
2023-03-01T19:52:01.792Z,8.88
2023-03-01T19:57:03.708Z,13.88
2023-03-01T20:02:05.535Z,11.10
2023-03-01T20:07:07.435Z,11.63
2023-03-01T20:12:09.222Z,12.32
2023-03-01T20:17:11.106Z,13.07
2023-03-01T20:22:15.070Z,14.30
2023-03-01T20:27:16.910Z,14.57
2023-03-01T20:32:18.888Z,13.63
2023-03-01T20:37:22.522Z,10.57
2023-03-01T20:42:24.407Z,10.38
2023-03-01T20:47:26.324Z,9.93
2023-03-01T20:52:32.333Z,10.70
2023-03-01T20:57:38.551Z,10.45
2023-03-01T21:02:40.410Z,11.30
2023-03-01T21:07:43.025Z,9.52
2023-03-01T21:12:44.832Z,9.68
2023-03-01T21:17:46.591Z,9.60
2023-03-01T21:22:48.460Z,10.23
2023-03-01T21:27:50.325Z,9.70
2023-03-01T21:32:52.148Z,9.73
2023-03-01T21:37:54.104Z,9.93
2023-03-01T21:42:55.892Z,9.65
2023-03-01T21:47:57.748Z,10.25
2023-03-01T21:52:59.872Z,8.75
2023-03-01T21:58:01.737Z,9.15
2023-03-01T22:03:03.659Z,10.75
2023-03-01T22:08:06.019Z,9.20
2023-03-01T22:13:08.003Z,9.68
2023-03-01T22:18:11.457Z,9.90
2023-03-01T22:23:13.325Z,9.73
2023-03-01T22:28:15.180Z,10.10
2023-03-01T22:33:17.010Z,10.93
2023-03-01T22:38:18.838Z,12.10
2023-03-01T22:43:22.147Z,9.60
2023-03-01T22:48:26.096Z,10.27
2023-03-01T22:53:29.295Z,11.00
2023-03-01T22:58:31.517Z,12.13
2023-03-01T23:03:34.498Z,12.05
2023-03-01T23:08:36.819Z,12.90
2023-03-01T23:13:39.467Z,12.55
2023-03-01T23:18:41.593Z,9.82
2023-03-01T23:23:44.106Z,10.30
2023-03-01T23:28:47.415Z,9.57
2023-03-01T23:33:49.738Z,9.50
2023-03-01T23:38:57.698Z,10.18
2023-03-01T23:44:01.324Z,10.43
2023-03-01T23:49:04.752Z,8.90
2023-03-01T23:54:07.419Z,9.48
2023-03-01T23:59:17.296Z,9.98
